createdAt,value
2017-05-07T00:00:21.151Z,12.12
2017-05-07T00:01:43.372Z,12.07
2017-05-07T00:03:05.839Z,12.1
2017-05-07T00:04:28.050Z,12.1
2017-05-07T00:05:50.879Z,12.1
2017-05-07T00:07:13.028Z,12.14
2017-05-07T00:08:35.189Z,12.09
2017-05-07T00:09:57.466Z,11.99
2017-05-07T00:11:20.105Z,11.99
2017-05-07T00:12:42.572Z,11.98
2017-05-07T00:14:04.494Z,11.96
2017-05-07T00:15:26.030Z,11.96
2017-05-07T00:16:48.269Z,12.01
2017-05-07T00:18:10.751Z,11.95
2017-05-07T00:19:32.888Z,11.91
2017-05-07T00:20:55.159Z,11.91
2017-05-07T00:22:17.296Z,11.83
2017-05-07T00:23:39.440Z,11.8
2017-05-07T00:25:00.936Z,11.75
2017-05-07T00:26:22.829Z,11.82
2017-05-07T00:27:45.049Z,11.8
2017-05-07T00:29:06.695Z,11.75
2017-05-07T00:30:28.830Z,11.76
2017-05-07T00:31:50.660Z,11.83
2017-05-07T00:33:13.749Z,11.79
2017-05-07T00:34:35.931Z,11.78
2017-05-07T00:35:58.191Z,11.7
2017-05-07T00:37:20.809Z,11.7
2017-05-07T00:38:43.511Z,11.78
2017-05-07T00:40:05.779Z,11.78
2017-05-07T00:41:26.990Z,11.76
2017-05-07T00:42:48.892Z,11.76
2017-05-07T00:44:10.758Z,11.72
2017-05-07T00:45:32.673Z,11.69
2017-05-07T00:46:54.177Z,11.7
2017-05-07T00:48:16.143Z,11.62
2017-05-07T00:49:38.011Z,11.65
2017-05-07T00:50:59.539Z,11.65
2017-05-07T00:52:21.679Z,11.64
2017-05-07T00:53:43.588Z,11.64
2017-05-07T00:55:06.430Z,11.61
2017-05-07T00:56:28.251Z,11.61
2017-05-07T00:57:50.411Z,11.6
2017-05-07T00:59:12.263Z,11.6
2017-05-07T01:00:34.976Z,11.57
2017-05-07T01:01:57.481Z,11.57
2017-05-07T01:03:19.993Z,11.58
2017-05-07T01:04:41.221Z,11.55
2017-05-07T01:06:04.053Z,11.55
2017-05-07T01:07:26.009Z,11.54
2017-05-07T01:08:47.312Z,11.52
2017-05-07T01:10:09.508Z,11.52
2017-05-07T01:11:31.350Z,11.47
2017-05-07T01:12:53.200Z,11.51
2017-05-07T01:14:15.787Z,11.37
2017-05-07T01:15:37.402Z,11.39
2017-05-07T01:16:59.445Z,11.43
2017-05-07T01:18:21.281Z,11.37
2017-05-07T01:19:43.120Z,11.33
2017-05-07T01:21:05.070Z,11.42
2017-05-07T01:22:27.602Z,11.37
2017-05-07T01:23:49.881Z,11.36
2017-05-07T01:25:12.353Z,11.4
2017-05-07T01:26:34.197Z,11.36
2017-05-07T01:27:56.699Z,11.4
2017-05-07T01:29:18.859Z,11.37
2017-05-07T01:30:40.356Z,11.37
2017-05-07T01:32:02.176Z,11.4
2017-05-07T01:33:24.363Z,11.47
2017-05-07T01:34:46.540Z,11.39
2017-05-07T01:36:08.375Z,11.4
2017-05-07T01:37:30.532Z,11.42
2017-05-07T01:38:52.336Z,11.35
2017-05-07T01:40:14.229Z,11.36
2017-05-07T01:41:36.082Z,11.35
2017-05-07T01:42:57.954Z,11.36
2017-05-07T01:44:20.151Z,11.43
2017-05-07T01:45:42.113Z,11.36
2017-05-07T01:47:04.586Z,11.43
2017-05-07T01:48:25.782Z,11.37
2017-05-07T01:49:47.947Z,11.39
2017-05-07T01:51:09.753Z,11.32
2017-05-07T01:52:31.896Z,11.35
2017-05-07T01:53:53.726Z,11.37
2017-05-07T01:55:16.539Z,11.35
2017-05-07T01:56:38.385Z,11.24
2017-05-07T01:57:59.927Z,11.35
2017-05-07T01:59:21.765Z,11.36
2017-05-07T02:00:43.886Z,11.25
2017-05-07T02:02:05.759Z,11.32
2017-05-07T02:03:28.076Z,11.28
2017-05-07T02:04:50.535Z,11.27
2017-05-07T02:06:12.750Z,11.25
2017-05-07T02:07:34.270Z,11.39
2017-05-07T02:08:55.470Z,11.28
2017-05-07T02:10:17.627Z,11.19
2017-05-07T02:11:40.142Z,11.19
2017-05-07T02:13:02.290Z,11.18
2017-05-07T02:14:24.440Z,11.24
2017-05-07T02:15:46.575Z,11.29
2017-05-07T02:17:08.769Z,11.29
2017-05-07T02:18:30.916Z,11.27
2017-05-07T02:19:53.436Z,11.22
2017-05-07T02:21:14.946Z,11.27
2017-05-07T02:22:37.497Z,11.33
2017-05-07T02:23:59.459Z,11.29
2017-05-07T02:25:21.379Z,11.19
2017-05-07T02:26:43.197Z,11.19
2017-05-07T02:28:05.393Z,11.27
2017-05-07T02:29:27.596Z,11.22
2017-05-07T02:30:49.108Z,11.27
2017-05-07T02:32:11.033Z,11.24
2017-05-07T02:33:33.128Z,11.14
2017-05-07T02:34:55.318Z,11.19
2017-05-07T02:36:16.516Z,11.19
2017-05-07T02:37:37.718Z,11.11
2017-05-07T02:38:59.792Z,11.11
2017-05-07T02:40:21.993Z,10.92
2017-05-07T02:41:43.500Z,10.94
2017-05-07T02:43:05.360Z,10.94
2017-05-07T02:44:27.686Z,10.88
2017-05-07T02:45:49.851Z,10.91
2017-05-07T02:47:11.408Z,10.91
2017-05-07T02:48:33.238Z,10.91
2017-05-07T02:49:55.458Z,10.82
2017-05-07T02:51:17.598Z,10.92
2017-05-07T02:52:39.429Z,10.85
2017-05-07T02:54:01.257Z,10.89
2017-05-07T02:55:23.088Z,10.85
2017-05-07T02:56:44.630Z,10.92
2017-05-07T02:58:07.198Z,10.76
2017-05-07T02:59:29.443Z,10.82
2017-05-07T03:00:51.910Z,10.79
2017-05-07T03:02:14.361Z,10.81
2017-05-07T03:03:36.509Z,10.88
2017-05-07T03:04:58.041Z,10.86
2017-05-07T03:06:20.466Z,10.86
2017-05-07T03:07:42.287Z,10.82
2017-05-07T03:09:04.557Z,10.74
2017-05-07T03:10:26.707Z,10.79
2017-05-07T03:11:48.519Z,10.79
2017-05-07T03:13:10.706Z,10.78
2017-05-07T03:14:32.845Z,10.84
2017-05-07T03:15:54.377Z,10.92
2017-05-07T03:17:16.509Z,10.89
2017-05-07T03:18:38.038Z,10.88
2017-05-07T03:19:59.856Z,10.91
2017-05-07T03:21:22.009Z,10.82
2017-05-07T03:22:44.472Z,10.82
2017-05-07T03:24:06.079Z,10.89
2017-05-07T03:25:28.218Z,10.81
2017-05-07T03:26:49.726Z,10.84
2017-05-07T03:28:12.481Z,10.82
2017-05-07T03:29:34.009Z,10.81
2017-05-07T03:30:56.157Z,10.81
2017-05-07T03:32:17.800Z,10.85
2017-05-07T03:33:39.928Z,10.79
2017-05-07T03:35:01.436Z,10.79
2017-05-07T03:36:23.044Z,10.86
2017-05-07T03:37:44.586Z,10.85
2017-05-07T03:39:06.742Z,10.84
2017-05-07T03:40:28.247Z,10.91
2017-05-07T03:41:50.394Z,10.89
2017-05-07T03:43:11.904Z,10.89
2017-05-07T03:44:33.748Z,10.85
2017-05-07T03:45:54.966Z,10.86
2017-05-07T03:47:16.328Z,10.85
2017-05-07T03:48:38.464Z,10.78
2017-05-07T03:50:00.337Z,10.84
2017-05-07T03:51:21.856Z,10.86
2017-05-07T03:52:44.055Z,10.88
2017-05-07T03:54:06.194Z,10.88
2017-05-07T03:55:28.355Z,10.91
2017-05-07T03:56:50.188Z,10.86
2017-05-07T03:58:12.722Z,10.88
2017-05-07T03:59:33.917Z,10.85
2017-05-07T04:00:56.676Z,10.82
2017-05-07T04:02:17.907Z,10.89
2017-05-07T04:03:39.627Z,10.76
2017-05-07T04:05:02.085Z,10.84
2017-05-07T04:06:24.828Z,10.89
2017-05-07T04:07:46.693Z,10.86
2017-05-07T04:09:08.931Z,10.91
2017-05-07T04:10:31.093Z,10.89
2017-05-07T04:11:53.338Z,10.88
2017-05-07T04:13:15.487Z,11
2017-05-07T04:14:36.999Z,10.94
2017-05-07T04:15:58.820Z,10.94
2017-05-07T04:17:20.652Z,11
2017-05-07T04:18:42.169Z,10.97
2017-05-07T04:20:04.659Z,11.02
2017-05-07T04:21:26.806Z,10.96
2017-05-07T04:22:49.652Z,11
2017-05-07T04:24:11.504Z,10.96
2017-05-07T04:25:33.332Z,10.92
2017-05-07T04:26:55.488Z,10.99
2017-05-07T04:28:17.398Z,10.97
2017-05-07T04:29:39.238Z,11.04
2017-05-07T04:31:01.117Z,11.15
2017-05-07T04:32:22.628Z,11.21
2017-05-07T04:33:44.218Z,11.21
2017-05-07T04:35:05.751Z,11.22
2017-05-07T04:36:27.587Z,11.21
2017-05-07T04:37:49.499Z,11.28
2017-05-07T04:39:12.044Z,11.28
2017-05-07T04:40:33.625Z,11.35
2017-05-07T04:41:55.803Z,11.33
2017-05-07T04:43:18.255Z,11.42
2017-05-07T04:44:40.403Z,11.43
2017-05-07T04:46:02.616Z,11.43
2017-05-07T04:47:24.787Z,11.46
2017-05-07T04:48:46.655Z,11.35
2017-05-07T04:50:08.839Z,11.36
2017-05-07T04:51:30.767Z,11.42
2017-05-07T04:52:52.930Z,11.36
2017-05-07T04:54:14.878Z,11.29
2017-05-07T04:55:37.385Z,11.37
2017-05-07T04:56:59.563Z,11.37
2017-05-07T04:58:21.708Z,11.4
2017-05-07T04:59:42.588Z,11.36
2017-05-07T05:01:04.394Z,11.33
2017-05-07T05:02:26.242Z,11.32
2017-05-07T05:03:48.389Z,11.29
2017-05-07T05:05:09.940Z,11.33
2017-05-07T05:06:32.373Z,11.24
2017-05-07T05:07:54.219Z,11.25
2017-05-07T05:09:15.881Z,11.22
2017-05-07T05:10:37.728Z,11.29
2017-05-07T05:11:59.985Z,11.29
2017-05-07T05:13:21.801Z,11.42
2017-05-07T05:14:44.269Z,11.46
2017-05-07T05:16:06.254Z,11.57
2017-05-07T05:17:27.767Z,11.62
2017-05-07T05:18:49.601Z,11.61
2017-05-07T05:20:11.427Z,11.6
2017-05-07T05:21:33.707Z,11.75
2017-05-07T05:22:56.409Z,11.65
2017-05-07T05:24:18.235Z,11.65
2017-05-07T05:25:40.389Z,11.72
2017-05-07T05:27:02.228Z,11.64
2017-05-07T05:28:24.698Z,11.61
2017-05-07T05:29:45.955Z,11.47
2017-05-07T05:31:08.107Z,11.35
2017-05-07T05:32:30.248Z,11.25
2017-05-07T05:33:52.400Z,11.21
2017-05-07T05:35:14.567Z,11.33
2017-05-07T05:36:36.388Z,11.29
2017-05-07T05:37:58.877Z,11.35
2017-05-07T05:39:21.369Z,11.37
2017-05-07T05:40:43.199Z,11.37
2017-05-07T05:42:05.030Z,11.52
2017-05-07T05:43:26.862Z,11.51
2017-05-07T05:44:49.008Z,11.51
2017-05-07T05:46:10.842Z,11.51
2017-05-07T05:47:32.980Z,11.7
2017-05-07T05:48:54.817Z,11.73
2017-05-07T05:50:16.950Z,11.73
2017-05-07T05:51:39.074Z,11.91
2017-05-07T05:53:00.921Z,12.16
2017-05-07T05:54:23.459Z,12.31
2017-05-07T05:55:45.606Z,12.41
2017-05-07T05:57:07.748Z,12.53
2017-05-07T05:58:29.259Z,12.74
2017-05-07T05:59:50.774Z,12.96
2017-05-07T06:01:12.904Z,13.14
2017-05-07T06:02:35.380Z,13.29
2017-05-07T06:03:57.524Z,13.39
2017-05-07T06:05:19.699Z,13.52
2017-05-07T06:06:41.822Z,13.59
2017-05-07T06:08:03.660Z,13.82
2017-05-07T06:09:25.563Z,14.02
2017-05-07T06:10:47.407Z,14.24
2017-05-07T06:12:09.269Z,14.37
2017-05-07T06:13:30.776Z,14.47
2017-05-07T06:14:52.609Z,14.78
2017-05-07T06:16:14.520Z,14.96
2017-05-07T06:17:37.420Z,15.14
2017-05-07T06:18:59.266Z,15.44
2017-05-07T06:20:20.790Z,15.57
2017-05-07T06:21:42.936Z,15.71
2017-05-07T06:23:04.756Z,16.07
2017-05-07T06:24:27.231Z,16.24
2017-05-07T06:25:49.098Z,16.48
2017-05-07T06:27:10.938Z,16.6
2017-05-07T06:28:32.836Z,16.28
2017-05-07T06:29:54.353Z,16.24
2017-05-07T06:31:15.559Z,15.76
2017-05-07T06:32:37.397Z,16.08
2017-05-07T06:34:00.005Z,16.53
2017-05-07T06:35:21.539Z,16.79
2017-05-07T06:36:44.078Z,15.74
2017-05-07T06:38:06.231Z,15.44
2017-05-07T06:39:28.121Z,15.78
2017-05-07T06:40:50.649Z,15.49
2017-05-07T06:42:13.128Z,15.19
2017-05-07T06:43:35.657Z,15.5
2017-05-07T06:44:57.857Z,15.84
2017-05-07T06:46:20.329Z,16.79
2017-05-07T06:47:42.287Z,17.49
2017-05-07T06:49:04.508Z,17.96
2017-05-07T06:50:27.026Z,18.1
2017-05-07T06:51:48.859Z,17.82
2017-05-07T06:53:11.408Z,17.95
2017-05-07T06:54:33.249Z,17.26
2017-05-07T06:55:55.239Z,17.81
2017-05-07T06:57:17.484Z,19.37
2017-05-07T06:58:39.331Z,21.64
2017-05-07T07:00:01.499Z,23.16
2017-05-07T07:01:24.232Z,23.88
2017-05-07T07:02:46.658Z,24.98
2017-05-07T07:04:08.178Z,26.05
2017-05-07T07:05:30.372Z,26.33
2017-05-07T07:06:52.392Z,25.36
2017-05-07T07:08:14.996Z,24.28
2017-05-07T07:09:36.849Z,22.82
2017-05-07T07:10:59.029Z,21.31
2017-05-07T07:12:20.856Z,22.18
2017-05-07T07:13:43.473Z,22.2
2017-05-07T07:15:06.000Z,21.46
2017-05-07T07:16:28.201Z,22.58
2017-05-07T07:17:50.390Z,24.03
2017-05-07T07:19:12.547Z,23.85
2017-05-07T07:20:34.386Z,24.3
2017-05-07T07:21:56.228Z,23.93
2017-05-07T07:23:18.699Z,24.28
2017-05-07T07:24:40.994Z,24.53
2017-05-07T07:26:03.546Z,23.58
2017-05-07T07:27:26.149Z,22.75
2017-05-07T07:28:48.560Z,23.57
2017-05-07T07:30:10.425Z,23.88
2017-05-07T07:31:32.278Z,22.17
2017-05-07T07:32:54.760Z,22.68
2017-05-07T07:34:16.929Z,23.31
2017-05-07T07:35:39.401Z,23.47
2017-05-07T07:37:01.567Z,23.72
2017-05-07T07:38:23.409Z,23.53
2017-05-07T07:39:45.571Z,22.24
2017-05-07T07:41:07.095Z,21.34
2017-05-07T07:42:29.254Z,20.31
2017-05-07T07:43:51.139Z,20.21
2017-05-07T07:45:13.306Z,19.74
2017-05-07T07:46:35.789Z,20.61
2017-05-07T07:47:57.969Z,20.92
2017-05-07T07:49:20.227Z,21.14
2017-05-07T07:50:42.059Z,21.37
2017-05-07T07:52:04.269Z,22.2
2017-05-07T07:53:26.446Z,22.62
2017-05-07T07:54:48.299Z,22.54
2017-05-07T07:56:10.539Z,22.46
2017-05-07T07:57:32.892Z,22.64
2017-05-07T07:58:55.378Z,22.72
2017-05-07T08:00:17.549Z,22.76
2017-05-07T08:01:40.079Z,22.73
2017-05-07T08:03:02.559Z,22.03
2017-05-07T08:04:24.735Z,20.88
2017-05-07T08:05:47.238Z,20.26
2017-05-07T08:07:09.492Z,20.01
2017-05-07T08:08:31.651Z,20.28
2017-05-07T08:09:53.726Z,20.33
2017-05-07T08:11:48.151Z,19
2017-05-07T08:13:10.616Z,18
2017-05-07T08:14:32.477Z,17.92
2017-05-07T08:15:54.712Z,18.14
2017-05-07T08:17:17.182Z,17.87
2017-05-07T08:18:39.668Z,18.05
2017-05-07T08:20:01.611Z,18.08
2017-05-07T08:21:23.758Z,18.02
2017-05-07T08:22:46.340Z,17.84
2017-05-07T08:24:08.858Z,17.86
2017-05-07T08:25:30.656Z,18.1
2017-05-07T08:26:52.821Z,18.18
2017-05-07T08:28:15.310Z,18.15
2017-05-07T08:29:37.158Z,18.2
2017-05-07T08:30:59.269Z,18.65
2017-05-07T08:32:21.480Z,18.94
2017-05-07T08:33:44.050Z,19.04
2017-05-07T08:35:05.589Z,19.07
2017-05-07T08:36:27.570Z,18.45
2017-05-07T08:37:49.505Z,18.29
2017-05-07T08:39:11.669Z,18.5
2017-05-07T08:40:33.534Z,18.41
2017-05-07T08:41:55.379Z,18.26
2017-05-07T08:43:17.538Z,17.56
2017-05-07T08:44:40.327Z,17.58
2017-05-07T08:46:02.029Z,17.51
2017-05-07T08:47:23.580Z,17.48
2017-05-07T08:48:45.788Z,17.31
2017-05-07T08:50:07.985Z,17.55
2017-05-07T08:51:30.170Z,17.82
2017-05-07T08:52:52.249Z,18.02
2017-05-07T08:54:13.991Z,18.15
2017-05-07T08:55:36.238Z,17.55
2017-05-07T08:56:58.398Z,17.81
2017-05-07T08:58:19.972Z,18.05
2017-05-07T08:59:42.449Z,17.81
2017-05-07T09:01:05.262Z,17.52
2017-05-07T09:02:27.419Z,17.64
2017-05-07T09:03:49.589Z,17.93
2017-05-07T09:05:12.041Z,18.25
2017-05-07T09:06:34.508Z,17.84
2017-05-07T09:07:57.052Z,17.92
2017-05-07T09:09:19.281Z,17.87
2017-05-07T09:10:41.552Z,18.14
2017-05-07T09:12:03.849Z,18.2
2017-05-07T09:13:25.749Z,18.32
2017-05-07T09:14:47.650Z,18.41
2017-05-07T09:16:10.202Z,18.39
2017-05-07T09:17:33.068Z,18.44
2017-05-07T09:18:55.229Z,18.41
2017-05-07T09:20:17.077Z,18.35
2017-05-07T09:21:39.239Z,18.72
2017-05-07T09:23:01.490Z,18.6
2017-05-07T09:24:23.753Z,18.95
2017-05-07T09:25:45.946Z,19.37
2017-05-07T09:27:07.054Z,19.36
2017-05-07T09:28:28.570Z,19.62
2017-05-07T09:29:50.118Z,19.51
2017-05-07T09:31:12.357Z,19.78
2017-05-07T09:32:34.234Z,19.78
2017-05-07T09:33:56.176Z,19.77
2017-05-07T09:35:18.344Z,19.44
2017-05-07T09:36:40.582Z,19.19
2017-05-07T09:38:02.820Z,18.92
2017-05-07T09:39:25.383Z,18.7
2017-05-07T09:40:47.583Z,18.81
2017-05-07T09:42:09.448Z,19.04
2017-05-07T09:43:31.693Z,19.39
2017-05-07T09:44:53.929Z,19.32
2017-05-07T09:46:16.158Z,19.16
2017-05-07T09:47:38.340Z,19.16
2017-05-07T09:48:59.876Z,19.22
2017-05-07T09:50:22.668Z,19.32
2017-05-07T09:51:44.843Z,19.33
2017-05-07T09:53:06.697Z,19.44
2017-05-07T09:54:27.906Z,19.32
2017-05-07T09:55:50.377Z,19.41
2017-05-07T09:57:11.994Z,19.56
2017-05-07T09:58:34.607Z,19.73
2017-05-07T09:59:55.818Z,19.54
2017-05-07T10:01:18.052Z,19.43
2017-05-07T10:02:40.576Z,19.36
2017-05-07T10:04:02.877Z,19.11
2017-05-07T10:05:24.424Z,18.8
2017-05-07T10:06:46.909Z,18.9
2017-05-07T10:08:08.758Z,18.52
2017-05-07T10:09:30.617Z,18.78
2017-05-07T10:10:52.454Z,19.16
2017-05-07T10:12:14.630Z,19.06
2017-05-07T10:13:36.158Z,19.04
2017-05-07T10:14:58.376Z,19.32
2017-05-07T10:16:20.228Z,19.46
2017-05-07T10:17:43.118Z,19.44
2017-05-07T10:19:05.027Z,19.29
2017-05-07T10:20:26.944Z,19.13
2017-05-07T10:21:48.491Z,19.28
2017-05-07T10:23:11.348Z,19.44
2017-05-07T10:24:33.568Z,19.63
2017-05-07T10:25:55.852Z,20.02
2017-05-07T10:27:17.709Z,20.11
2017-05-07T10:28:40.182Z,20.06
2017-05-07T10:30:02.382Z,20.29
2017-05-07T10:31:24.997Z,20.52
2017-05-07T10:32:47.341Z,20.5
2017-05-07T10:34:09.892Z,20.28
2017-05-07T10:35:32.440Z,20.31
2017-05-07T10:36:54.626Z,20.2
2017-05-07T10:38:16.794Z,20.18
2017-05-07T10:39:39.025Z,20.41
2017-05-07T10:41:01.172Z,20.66
2017-05-07T10:42:23.346Z,20.95
2017-05-07T10:43:45.831Z,21.35
2017-05-07T10:45:08.655Z,21.38
2017-05-07T10:46:30.953Z,21.31
2017-05-07T10:47:53.124Z,21.29
2017-05-07T10:49:15.447Z,21.43
2017-05-07T10:50:38.245Z,21.67
2017-05-07T10:52:00.567Z,21.4
2017-05-07T10:53:23.146Z,21.62
2017-05-07T10:54:45.353Z,21.32
2017-05-07T10:56:07.260Z,21.03
2017-05-07T10:57:29.140Z,20.74
2017-05-07T10:58:51.297Z,21.13
2017-05-07T11:00:13.796Z,20.89
2017-05-07T11:01:36.321Z,21.04
2017-05-07T11:02:58.498Z,21.01
2017-05-07T11:04:21.334Z,20.82
2017-05-07T11:05:43.256Z,20.85
2017-05-07T11:07:05.677Z,21.12
2017-05-07T11:08:28.282Z,21.29
2017-05-07T11:09:50.132Z,21.19
2017-05-07T11:11:12.363Z,21.32
2017-05-07T11:12:35.133Z,21.61
2017-05-07T11:13:57.306Z,22.02
2017-05-07T11:15:19.844Z,22.21
2017-05-07T11:16:42.054Z,22
2017-05-07T11:18:04.974Z,21.69
2017-05-07T11:19:26.838Z,21.52
2017-05-07T11:20:49.325Z,21.8
2017-05-07T11:22:11.484Z,20.88
2017-05-07T11:23:34.422Z,21.21
2017-05-07T11:24:56.297Z,21.56
2017-05-07T11:26:18.192Z,21.86
2017-05-07T11:27:40.044Z,21.79
2017-05-07T11:29:01.942Z,21.92
2017-05-07T11:30:23.806Z,21.75
2017-05-07T11:31:45.314Z,20.82
2017-05-07T11:33:07.576Z,20.98
2017-05-07T11:34:29.740Z,21.13
2017-05-07T11:35:51.982Z,21.42
2017-05-07T11:37:13.508Z,21.8
2017-05-07T11:38:36.050Z,21.99
2017-05-07T11:39:58.649Z,22.14
2017-05-07T11:41:20.483Z,21.44
2017-05-07T11:42:42.012Z,20.29
2017-05-07T11:44:03.548Z,20.1
2017-05-07T11:45:25.746Z,20.33
2017-05-07T11:46:47.652Z,20.33
2017-05-07T11:48:09.166Z,20.41
2017-05-07T11:49:31.842Z,20.57
2017-05-07T11:50:54.393Z,20.57
2017-05-07T11:52:16.235Z,20.41
2017-05-07T11:53:38.536Z,20.82
2017-05-07T11:55:00.511Z,21.24
2017-05-07T11:56:22.352Z,21.32
2017-05-07T11:57:44.561Z,21.16
2017-05-07T11:59:06.733Z,21.37
2017-05-07T12:00:28.666Z,21.17
2017-05-07T12:01:51.138Z,21.61
2017-05-07T12:03:13.312Z,21.59
2017-05-07T12:04:35.497Z,21.64
2017-05-07T12:05:57.980Z,21.96
2017-05-07T12:07:20.490Z,22.22
2017-05-07T12:08:42.681Z,22.2
2017-05-07T12:10:04.845Z,22.22
2017-05-07T12:11:27.010Z,21.77
2017-05-07T12:12:49.479Z,21.06
2017-05-07T12:14:11.338Z,20.58
2017-05-07T12:15:33.508Z,20.52
2017-05-07T12:16:55.701Z,20.39
2017-05-07T12:18:17.847Z,20.31
2017-05-07T12:19:40.318Z,19.96
2017-05-07T12:21:02.512Z,19.96
2017-05-07T12:22:25.023Z,19.95
2017-05-07T12:23:47.592Z,20.11
2017-05-07T12:25:09.769Z,20.39
2017-05-07T12:26:31.730Z,20.57
2017-05-07T12:27:54.284Z,20.33
2017-05-07T12:29:16.817Z,20.1
2017-05-07T12:30:38.989Z,19.94
2017-05-07T12:32:01.143Z,20.02
2017-05-07T12:33:22.683Z,19.77
2017-05-07T12:34:45.715Z,20.13
2017-05-07T12:36:07.686Z,20.36
2017-05-07T12:37:30.212Z,20.52
2017-05-07T12:38:52.369Z,20.29
2017-05-07T12:40:14.838Z,19.8
2017-05-07T12:41:37.007Z,19.76
2017-05-07T12:42:59.238Z,19.41
2017-05-07T12:44:21.734Z,19.73
2017-05-07T12:45:44.218Z,20.03
2017-05-07T12:47:06.147Z,20.32
2017-05-07T12:48:28.068Z,20.13
2017-05-07T12:49:50.237Z,19.98
2017-05-07T12:51:12.083Z,19.78
2017-05-07T12:52:34.272Z,19.74
2017-05-07T12:53:56.113Z,20.1
2017-05-07T12:55:17.945Z,20.29
2017-05-07T12:56:40.134Z,20.01
2017-05-07T12:58:02.648Z,19.61
2017-05-07T12:59:24.858Z,19.68
2017-05-07T13:00:47.032Z,19.71
2017-05-07T13:02:08.917Z,19.87
2017-05-07T13:03:31.405Z,20.11
2017-05-07T13:04:53.940Z,20.03
2017-05-07T13:06:16.238Z,19.96
2017-05-07T13:07:38.984Z,19.61
2017-05-07T13:09:00.924Z,19.83
2017-05-07T13:10:23.107Z,19.86
2017-05-07T13:11:45.321Z,19.71
2017-05-07T13:13:08.113Z,19.56
2017-05-07T13:14:30.770Z,19.32
2017-05-07T13:15:52.942Z,19.33
2017-05-07T13:17:15.151Z,19.25
2017-05-07T13:18:37.601Z,19.23
2017-05-07T13:19:59.467Z,19.26
2017-05-07T13:21:22.130Z,19.44
2017-05-07T13:22:44.285Z,19.28
2017-05-07T13:24:06.717Z,19.54
2017-05-07T13:25:28.558Z,19.43
2017-05-07T13:26:51.094Z,19.1
2017-05-07T13:28:12.996Z,18.88
2017-05-07T13:29:35.477Z,18.95
2017-05-07T13:30:57.700Z,18.82
2017-05-07T13:32:19.577Z,19.08
2017-05-07T13:33:41.771Z,18.99
2017-05-07T13:35:03.898Z,19.13
2017-05-07T13:36:26.477Z,19.19
2017-05-07T13:37:48.963Z,19.31
2017-05-07T13:39:11.469Z,19.31
2017-05-07T13:40:33.626Z,19.32
2017-05-07T13:41:55.895Z,19.47
2017-05-07T13:43:17.771Z,19.36
2017-05-07T13:44:39.944Z,19.61
2017-05-07T13:46:02.240Z,19.61
2017-05-07T13:47:24.731Z,19.65
2017-05-07T13:48:46.578Z,19.55
2017-05-07T13:50:08.418Z,19.11
2017-05-07T13:51:31.300Z,19.22
2017-05-07T13:52:53.788Z,19.19
2017-05-07T13:54:16.198Z,19.22
2017-05-07T13:55:38.347Z,19.4
2017-05-07T13:57:00.511Z,19.37
2017-05-07T13:58:22.789Z,19.43
2017-05-07T13:59:45.114Z,19.56
2017-05-07T14:01:07.284Z,19.65
2017-05-07T14:02:29.478Z,19.59
2017-05-07T14:03:51.323Z,19.71
2017-05-07T14:05:13.318Z,19.8
2017-05-07T14:06:35.857Z,19.69
2017-05-07T14:07:58.318Z,19.59
2017-05-07T14:09:20.167Z,19.31
2017-05-07T14:10:42.062Z,19.55
2017-05-07T14:12:03.609Z,19.68
2017-05-07T14:13:26.357Z,19.4
2017-05-07T14:14:48.221Z,19.51
2017-05-07T14:16:10.131Z,19.68
2017-05-07T14:17:32.345Z,19.86
2017-05-07T14:18:54.177Z,19.99
2017-05-07T14:20:16.155Z,20.11
2017-05-07T14:21:38.717Z,19.87
2017-05-07T14:23:00.877Z,19.71
2017-05-07T14:24:22.715Z,19.5
2017-05-07T14:25:44.572Z,19.31
2017-05-07T14:27:07.077Z,19
2017-05-07T14:28:29.287Z,18.65
2017-05-07T14:29:52.190Z,18.72
2017-05-07T14:31:14.686Z,18.65
2017-05-07T14:32:36.528Z,18.58
2017-05-07T14:33:57.742Z,18.72
2017-05-07T14:35:20.200Z,19.02
2017-05-07T14:36:42.238Z,19.21
2017-05-07T14:38:04.504Z,19.11
2017-05-07T14:39:26.756Z,19.07
2017-05-07T14:40:49.200Z,18.92
2017-05-07T14:42:11.807Z,19.11
2017-05-07T14:43:33.659Z,19.31
2017-05-07T14:44:56.304Z,19.61
2017-05-07T14:46:18.479Z,19.63
2017-05-07T14:47:40.653Z,19.81
2017-05-07T14:49:03.197Z,19.95
2017-05-07T14:50:25.370Z,20.01
2017-05-07T14:51:47.483Z,19.92
2017-05-07T14:53:09.650Z,19.8
2017-05-07T14:54:31.516Z,19.61
2017-05-07T14:55:53.705Z,19.74
2017-05-07T14:57:15.877Z,19.92
2017-05-07T14:58:37.087Z,19.96
2017-05-07T14:59:59.587Z,19.71
2017-05-07T15:01:21.748Z,19.65
2017-05-07T15:02:44.648Z,19.48
2017-05-07T15:04:06.821Z,19.58
2017-05-07T15:05:29.329Z,19.33
2017-05-07T15:06:51.823Z,19.07
2017-05-07T15:08:14.328Z,19.14
2017-05-07T15:09:36.516Z,18.9
2017-05-07T15:10:58.785Z,19.02
2017-05-07T15:12:20.766Z,19.07
2017-05-07T15:13:43.276Z,18.95
2017-05-07T15:15:05.509Z,19.08
2017-05-07T15:16:28.136Z,18.72
2017-05-07T15:17:50.315Z,19.08
2017-05-07T15:19:12.763Z,18.8
2017-05-07T15:20:34.304Z,18.73
2017-05-07T15:21:56.146Z,18.88
2017-05-07T15:23:18.640Z,18.95
2017-05-07T15:24:40.735Z,18.91
2017-05-07T15:26:02.916Z,18.72
2017-05-07T15:27:25.193Z,18.72
2017-05-07T15:28:47.709Z,18.54
2017-05-07T15:30:10.407Z,18.55
2017-05-07T15:31:32.264Z,18.57
2017-05-07T15:32:54.479Z,18.63
2017-05-07T15:34:17.105Z,18.51
2017-05-07T15:35:39.537Z,18.6
2017-05-07T15:37:01.416Z,18.69
2017-05-07T15:38:23.611Z,18.84
2017-05-07T15:39:46.109Z,18.8
2017-05-07T15:41:08.953Z,18.6
2017-05-07T15:42:30.839Z,18.58
2017-05-07T15:43:52.798Z,18.15
2017-05-07T15:45:14.690Z,18.29
2017-05-07T15:46:37.236Z,18.37
2017-05-07T15:47:59.854Z,18.33
2017-05-07T15:49:22.060Z,18.42
2017-05-07T15:50:43.607Z,18.45
2017-05-07T15:52:06.165Z,18.48
2017-05-07T15:53:28.349Z,18.25
2017-05-07T15:54:50.867Z,18.02
2017-05-07T15:56:13.390Z,18.05
2017-05-07T15:57:36.174Z,18.08
2017-05-07T15:58:58.397Z,17.92
2017-05-07T16:00:20.729Z,18.05
2017-05-07T16:01:42.654Z,18.03
2017-05-07T16:03:04.856Z,17.97
2017-05-07T16:04:26.825Z,17.82
2017-05-07T16:05:48.693Z,17.72
2017-05-07T16:07:10.997Z,17.44
2017-05-07T16:08:33.013Z,17.46
2017-05-07T16:09:54.865Z,17.68
2017-05-07T16:11:17.019Z,17.56
2017-05-07T16:12:39.506Z,17.55
2017-05-07T16:14:02.038Z,17.74
2017-05-07T16:15:23.976Z,17.81
2017-05-07T16:16:45.830Z,17.81
2017-05-07T16:18:08.117Z,17.74
2017-05-07T16:19:30.281Z,17.77
2017-05-07T16:20:52.567Z,17.75
2017-05-07T16:22:14.544Z,17.68
2017-05-07T16:23:36.749Z,17.46
2017-05-07T16:24:59.567Z,17.49
2017-05-07T16:26:21.424Z,17.44
2017-05-07T16:27:43.610Z,17.55
2017-05-07T16:29:06.088Z,17.72
2017-05-07T16:30:29.017Z,17.46
2017-05-07T16:31:51.812Z,17.22
2017-05-07T16:33:14.031Z,17.23
2017-05-07T16:34:35.918Z,17.28
2017-05-07T16:35:58.187Z,17.21
2017-05-07T16:37:20.376Z,17.18
2017-05-07T16:38:42.679Z,17.19
2017-05-07T16:40:05.167Z,17.08
2017-05-07T16:41:27.877Z,16.97
2017-05-07T16:42:50.195Z,16.96
2017-05-07T16:44:13.440Z,17.03
2017-05-07T16:45:35.970Z,17
2017-05-07T16:46:58.888Z,17.06
2017-05-07T16:48:21.377Z,17.15
2017-05-07T16:49:43.462Z,17.01
2017-05-07T16:51:05.918Z,16.85
2017-05-07T16:52:28.443Z,16.88
2017-05-07T16:53:50.296Z,16.98
2017-05-07T16:55:12.486Z,16.97
2017-05-07T16:56:34.775Z,16.86
2017-05-07T16:57:57.511Z,16.82
2017-05-07T16:59:19.758Z,16.88
2017-05-07T17:00:42.318Z,16.89
2017-05-07T17:02:04.310Z,16.86
2017-05-07T17:03:27.160Z,16.75
2017-05-07T17:04:49.335Z,16.85
2017-05-07T17:06:10.866Z,16.67
2017-05-07T17:07:33.359Z,16.75
2017-05-07T17:08:55.612Z,16.73
2017-05-07T17:10:17.778Z,16.81
2017-05-07T17:11:39.964Z,16.56
2017-05-07T17:13:01.959Z,16.52
2017-05-07T17:14:24.884Z,16.34
2017-05-07T17:15:47.499Z,16.2
2017-05-07T17:17:09.676Z,16.27
2017-05-07T17:18:31.854Z,16.2
2017-05-07T17:19:54.569Z,16.33
2017-05-07T17:21:17.162Z,16.17
2017-05-07T17:22:39.349Z,16.09
2017-05-07T17:24:01.850Z,16.05
2017-05-07T17:25:24.597Z,16.09
2017-05-07T17:26:46.914Z,16.07
2017-05-07T17:28:09.097Z,16.07
2017-05-07T17:29:31.614Z,16.11
2017-05-07T17:30:54.106Z,16.07
2017-05-07T17:32:16.265Z,16.07
2017-05-07T17:33:38.475Z,16.09
2017-05-07T17:35:00.655Z,15.97
2017-05-07T17:36:23.470Z,15.74
2017-05-07T17:37:45.662Z,15.71
2017-05-07T17:39:07.518Z,15.74
2017-05-07T17:40:29.407Z,15.69
2017-05-07T17:41:51.924Z,15.76